Time;durP1;ratioP1;P1;durP2;ratioP2;P2;SDS_P1;SDS_P2;PMS_P1;PMS_P2;Temp;Humidity;BMP_temperature;BMP_pressure;BME280_temperature;BME280_humidity;BME280_pressure;Samples;Min_cycle;Max_cycle;Signal;HPM_P1;HPM_P2
2022/01/27 00:04:47;;;;;;;57.10;26.98;;;2.70;99.90;;;;;;5054454;28;20542;-59
2022/01/27 00:07:12;;;;;;;63.17;28.00;;;2.70;99.90;;;;;;5053329;28;20089;-59
2022/01/27 00:12:05;;;;;;;64.65;27.50;;;2.70;99.90;;;;;;5054664;28;20033;-57
2022/01/27 00:14:31;;;;;;;68.07;27.58;;;2.60;99.90;;;;;;5054608;28;20029;-60
2022/01/27 00:16:58;;;;;;;72.20;30.70;;;2.60;99.90;;;;;;5049163;28;20471;-71
2022/01/27 00:19:25;;;;;;;66.13;29.08;;;2.60;99.90;;;;;;5033076;28;20032;-68
2022/01/27 00:21:51;;;;;;;69.35;27.75;;;2.60;99.90;;;;;;5053238;28;20508;-56
2022/01/27 00:24:17;;;;;;;65.50;27.23;;;2.60;99.90;;;;;;5056272;28;20120;-59
2022/01/27 00:26:43;;;;;;;71.70;29.80;;;2.60;99.90;;;;;;5053381;28;20112;-57
2022/01/27 00:29:08;;;;;;;66.85;27.83;;;2.50;99.90;;;;;;5053869;28;20408;-56
2022/01/27 00:31:34;;;;;;;74.32;29.90;;;2.50;99.90;;;;;;5052535;28;20033;-56
2022/01/27 00:34:03;;;;;;;72.03;29.83;;;2.50;99.90;;;;;;5052850;28;20131;-67
2022/01/27 00:36:36;;;;;;;63.08;29.77;;;2.50;99.90;;;;;;5053331;28;20052;-66
2022/01/27 00:39:03;;;;;;;63.47;27.52;;;2.50;99.90;;;;;;5051650;28;20094;-65
2022/01/27 00:41:28;;;;;;;62.78;28.40;;;2.60;99.90;;;;;;5052180;28;20057;-63
2022/01/27 00:43:54;;;;;;;66.53;27.08;;;2.70;99.90;;;;;;5051882;28;20107;-63
2022/01/27 00:46:20;;;;;;;66.55;27.33;;;2.60;99.90;;;;;;5052147;28;20400;-64
2022/01/27 00:48:47;;;;;;;63.88;27.52;;;2.60;99.90;;;;;;5053927;28;20033;-64
2022/01/27 00:51:20;;;;;;;56.95;26.08;;;2.60;99.90;;;;;;5057580;28;20025;-67
2022/01/27 00:53:51;;;;;;;66.43;29.98;;;2.70;99.90;;;;;;5047302;28;20025;-58
2022/01/27 00:56:33;;;;;;;56.60;25.92;;;2.70;99.90;;;;;;5053626;28;20067;-59
2022/01/27 00:59:19;;;;;;;63.00;27.33;;;2.70;99.90;;;;;;5054543;28;20029;-58
2022/01/27 01:01:53;;;;;;;61.58;28.02;;;2.70;99.90;;;;;;5054526;28;20033;-60
2022/01/27 01:04:28;;;;;;;56.95;25.90;;;2.80;99.90;;;;;;5053041;28;20025;-59
2022/01/27 01:06:54;;;;;;;;;;;2.80;99.90;;;;;;5053093;28;20036;-58
2022/01/27 01:13:24;;;;;;;57.30;26.42;;;2.80;99.90;;;;;;5052765;28;20025;-59
2022/01/27 01:14:59;;;;;;;55.47;26.70;;;2.80;99.90;;;;;;5047909;28;20037;-57
2022/01/27 01:20:25;;;;;;;49.55;23.95;;;2.90;99.90;;;;;;5037805;28;20426;-59
2022/01/27 01:33:57;;;;;;;43.72;20.98;;;3.00;99.90;;;;;;5033296;28;20029;-59
2022/01/27 01:37:07;;;;;;;43.42;21.60;;;3.00;99.90;;;;;;5033061;28;20035;-59
2022/01/27 01:39:12;;;;;;;41.50;21.33;;;3.00;99.90;;;;;;5025011;28;20128;-60
2022/01/27 01:41:38;;;;;;;42.58;22.45;;;3.00;99.90;;;;;;5033127;28;20125;-60
2022/01/27 01:44:04;;;;;;;45.95;22.90;;;3.10;99.90;;;;;;5032542;28;20493;-60
2022/01/27 01:46:30;;;;;;;46.83;21.50;;;3.00;99.90;;;;;;5033688;28;20485;-59
2022/01/27 01:48:56;;;;;;;41.20;19.60;;;3.00;99.90;;;;;;5033161;28;20121;-59
2022/01/27 01:51:29;;;;;;;42.13;21.33;;;3.10;99.90;;;;;;5033529;28;20474;-60
2022/01/27 01:53:55;;;;;;;45.38;21.23;;;3.00;99.90;;;;;;5044533;28;20037;-59
2022/01/27 01:56:21;;;;;;;36.13;19.08;;;3.10;99.90;;;;;;5053484;28;20102;-60
2022/01/27 01:58:47;;;;;;;41.03;19.92;;;3.10;99.90;;;;;;5052919;28;20736;-59
2022/01/27 02:01:16;;;;;;;41.78;20.40;;;3.10;99.90;;;;;;5053271;28;20025;-58
2022/01/27 02:03:42;;;;;;;39.67;21.63;;;3.00;99.90;;;;;;5052734;28;20421;-60
2022/01/27 02:06:16;;;;;;;41.33;22.23;;;3.00;99.90;;;;;;5059930;28;20099;-59
2022/01/27 02:09:01;;;;;;;41.03;21.05;;;3.00;99.90;;;;;;5052993;28;20116;-57
2022/01/27 02:19:39;;;;;;;37.10;20.07;;;2.90;99.90;;;;;;5051883;28;20716;-59
2022/01/27 02:22:06;;;;;;;38.92;19.30;;;2.90;99.90;;;;;;5051701;28;20064;-59
2022/01/27 02:24:34;;;;;;;35.75;19.65;;;2.90;99.90;;;;;;5052484;28;20065;-57
2022/01/27 02:27:01;;;;;;;39.42;20.17;;;2.90;99.90;;;;;;5052891;28;20033;-58
2022/01/27 02:29:27;;;;;;;37.38;20.25;;;2.90;99.90;;;;;;5052459;28;20021;-59
2022/01/27 02:31:55;;;;;;;38.28;19.88;;;2.90;99.90;;;;;;5052972;28;20033;-60
2022/01/27 02:34:22;;;;;;;33.90;18.60;;;3.00;99.90;;;;;;5053393;28;20045;-60
2022/01/27 02:36:48;;;;;;;36.22;19.10;;;2.90;99.90;;;;;;5052339;28;20496;-59
2022/01/27 02:39:14;;;;;;;33.05;19.65;;;2.90;99.90;;;;;;5052744;28;20131;-60
2022/01/27 02:41:47;;;;;;;32.00;18.83;;;2.80;99.90;;;;;;5052812;28;20029;-58
2022/01/27 02:44:31;;;;;;;33.33;18.40;;;2.90;99.90;;;;;;5052892;28;20036;-58
2022/01/27 02:46:57;;;;;;;32.53;19.07;;;2.90;99.90;;;;;;5052165;28;20434;-57
2022/01/27 02:49:22;;;;;;;33.38;18.83;;;2.90;99.90;;;;;;5052009;28;20049;-60
2022/01/27 02:51:48;;;;;;;33.90;18.55;;;2.80;99.90;;;;;;5052293;28;20032;-59
2022/01/27 02:54:14;;;;;;;35.17;19.58;;;2.80;99.90;;;;;;5052463;28;20029;-60
2022/01/27 02:56:44;;;;;;;35.00;19.83;;;2.80;99.90;;;;;;5055470;28;20033;-59
2022/01/27 02:59:11;;;;;;;37.50;20.52;;;2.80;99.90;;;;;;5056463;28;20044;-59
2022/01/27 03:01:37;;;;;;;33.53;20.10;;;2.80;99.90;;;;;;5055988;28;20044;-56
2022/01/27 03:04:03;;;;;;;33.50;20.85;;;2.80;99.90;;;;;;5054676;28;20033;-58
2022/01/27 03:06:28;;;;;;;35.50;20.33;;;2.80;99.90;;;;;;5056318;28;20040;-59
2022/01/27 03:08:54;;;;;;;35.10;21.02;;;2.80;99.90;;;;;;5056151;28;20052;-59
2022/01/27 03:11:47;;;;;;;34.65;20.17;;;2.80;99.90;;;;;;5055161;28;20079;-58
2022/01/27 03:14:18;;;;;;;39.30;20.70;;;2.70;99.90;;;;;;5056368;28;20029;-56
2022/01/27 03:16:44;;;;;;;39.55;21.60;;;2.70;99.90;;;;;;5056914;28;20072;-58
2022/01/27 03:19:10;;;;;;;34.70;20.10;;;2.70;99.90;;;;;;5072291;28;20039;-60
2022/01/27 03:21:35;;;;;;;34.47;20.52;;;2.70;99.90;;;;;;5055138;28;20560;-58
2022/01/27 03:24:01;;;;;;;35.63;21.85;;;2.70;99.90;;;;;;5059121;28;20107;-60
2022/01/27 03:26:27;;;;;;;35.10;21.23;;;2.70;99.90;;;;;;5056380;28;20036;-59
2022/01/27 03:28:53;;;;;;;41.75;22.63;;;2.70;99.90;;;;;;5055851;28;20034;-60
2022/01/27 03:31:20;;;;;;;36.88;21.88;;;2.70;99.90;;;;;;5055916;28;20037;-59
2022/01/27 03:33:45;;;;;;;40.90;23.17;;;2.70;99.90;;;;;;5056250;28;20028;-57
2022/01/27 03:36:12;;;;;;;34.10;21.67;;;2.70;99.90;;;;;;5055685;28;20028;-59
2022/01/27 03:38:38;;;;;;;38.42;22.85;;;2.60;99.90;;;;;;5054776;28;20040;-57
2022/01/27 03:41:06;;;;;;;38.88;22.55;;;2.70;99.90;;;;;;5055774;28;20120;-58
2022/01/27 03:43:32;;;;;;;37.88;21.90;;;2.70;99.90;;;;;;5053610;28;20526;-60
2022/01/27 03:45:58;;;;;;;37.45;20.48;;;2.70;99.90;;;;;;5054989;28;20033;-59
2022/01/27 03:48:24;;;;;;;34.72;19.75;;;2.80;99.90;;;;;;5053744;28;20033;-58
2022/01/27 03:50:50;;;;;;;40.10;21.00;;;2.70;99.90;;;;;;5055716;28;20044;-59
2022/01/27 03:53:15;;;;;;;36.17;22.38;;;2.70;99.90;;;;;;5054180;28;20028;-57
2022/01/27 03:55:42;;;;;;;37.72;21.77;;;2.70;99.90;;;;;;5054812;28;20025;-59
2022/01/27 03:58:08;;;;;;;38.03;21.17;;;2.70;99.90;;;;;;5054735;28;20063;-59
2022/01/27 04:00:35;;;;;;;39.65;22.08;;;2.70;99.90;;;;;;5055444;28;20116;-55
2022/01/27 04:05:33;;;;;;;40.45;21.58;;;2.70;99.90;;;;;;5055223;28;20179;-60
2022/01/27 04:07:58;;;;;;;38.75;21.83;;;2.70;99.90;;;;;;5054587;28;20124;-59
2022/01/27 04:10:24;;;;;;;39.70;22.00;;;2.80;99.90;;;;;;5055035;28;20116;-55
2022/01/27 04:12:50;;;;;;;37.88;21.40;;;2.70;99.90;;;;;;5054627;28;20040;-58
2022/01/27 04:15:15;;;;;;;39.65;21.67;;;2.70;99.90;;;;;;5054700;28;20082;-59
2022/01/27 04:17:41;;;;;;;36.72;21.50;;;2.70;99.90;;;;;;5062182;28;20546;-57
2022/01/27 04:20:07;;;;;;;41.22;23.55;;;2.80;99.90;;;;;;5073628;28;20079;-59
2022/01/27 04:22:32;;;;;;;36.80;21.52;;;2.80;99.90;;;;;;5067951;28;20056;-58
2022/01/27 04:24:58;;;;;;;40.22;23.20;;;2.80;99.90;;;;;;5054247;28;20508;-58
2022/01/27 04:27:29;;;;;;;41.20;22.05;;;2.80;99.90;;;;;;5054492;28;20068;-61
2022/01/27 04:29:58;;;;;;;39.83;23.88;;;2.80;99.90;;;;;;5054730;28;20035;-59
2022/01/27 04:32:30;;;;;;;40.40;22.20;;;2.80;99.90;;;;;;5054201;28;20033;-61
2022/01/27 04:35:01;;;;;;;42.10;23.42;;;2.70;99.90;;;;;;5054628;28;20033;-59
2022/01/27 04:37:28;;;;;;;40.08;24.50;;;2.70;99.90;;;;;;5056535;28;20032;-57
2022/01/27 04:40:09;;;;;;;41.83;23.88;;;2.70;99.90;;;;;;5056583;28;20043;-59
2022/01/27 04:43:16;;;;;;;42.28;24.88;;;2.70;99.90;;;;;;5054308;28;20052;-58
2022/01/27 04:45:33;;;;;;;39.45;20.00;;;2.70;99.90;;;;;;5052916;28;20511;-58
2022/01/27 04:48:08;;;;;;;35.85;20.83;;;2.70;99.90;;;;;;5052711;28;20512;-58
2022/01/27 04:50:38;;;;;;;34.55;20.13;;;2.80;99.90;;;;;;5054358;28;20041;-58
2022/01/27 04:53:08;;;;;;;36.78;21.52;;;2.70;99.90;;;;;;5049126;28;20091;-58
2022/01/27 04:55:34;;;;;;;34.63;19.95;;;2.80;99.90;;;;;;5034589;28;20209;-59
2022/01/27 04:58:14;;;;;;;32.95;19.23;;;2.80;99.90;;;;;;5034288;28;20231;-59
2022/01/27 05:00:39;;;;;;;30.45;16.20;;;2.80;99.90;;;;;;5034172;28;20088;-59
2022/01/27 05:03:15;;;;;;;29.83;17.80;;;2.80;99.90;;;;;;5055766;28;20484;-58
2022/01/27 05:05:41;;;;;;;29.13;15.55;;;2.80;99.90;;;;;;5053892;28;20033;-55
2022/01/27 05:08:10;;;;;;;25.88;16.65;;;2.80;99.90;;;;;;5053325;28;20033;-56
2022/01/27 05:10:36;;;;;;;29.33;17.83;;;2.80;99.90;;;;;;5053279;28;20392;-56
2022/01/27 05:13:16;;;;;;;32.58;19.48;;;2.90;99.90;;;;;;5053565;28;20040;-55
2022/01/27 05:15:44;;;;;;;34.78;20.23;;;2.90;99.90;;;;;;5054292;28;20044;-57
2022/01/27 05:18:11;;;;;;;37.97;22.23;;;2.90;99.90;;;;;;5066001;28;20032;-55
2022/01/27 05:20:37;;;;;;;36.88;21.13;;;2.90;99.90;;;;;;5073501;28;20059;-55
2022/01/27 05:23:02;;;;;;;36.92;20.27;;;2.90;99.90;;;;;;5061062;28;20056;-56
2022/01/27 05:25:28;;;;;;;41.90;21.33;;;2.80;99.90;;;;;;5051793;28;20064;-54
2022/01/27 05:27:53;;;;;;;37.95;21.85;;;2.70;99.90;;;;;;5053647;28;20036;-57
2022/01/27 05:30:19;;;;;;;38.20;20.20;;;2.70;99.90;;;;;;5053658;28;20025;-56
2022/01/27 05:32:45;;;;;;;38.10;21.50;;;2.70;99.90;;;;;;5052375;28;20040;-56
2022/01/27 05:35:10;;;;;;;39.38;21.15;;;2.60;99.90;;;;;;5053889;28;20496;-54
2022/01/27 05:37:36;;;;;;;37.28;21.27;;;2.60;99.90;;;;;;5054006;28;20029;-56
2022/01/27 05:40:02;;;;;;;36.75;22.05;;;2.60;99.90;;;;;;5053035;28;20393;-53
2022/01/27 05:42:27;;;;;;;43.00;25.08;;;2.60;99.90;;;;;;5054161;28;20032;-59
2022/01/27 05:44:53;;;;;;;43.83;23.65;;;2.60;99.90;;;;;;5055022;28;20053;-55
2022/01/27 05:47:19;;;;;;;40.80;22.88;;;2.50;99.90;;;;;;5055279;28;20060;-57
2022/01/27 05:49:45;;;;;;;38.35;20.98;;;2.50;99.90;;;;;;5053106;28;20504;-55
2022/01/27 05:52:10;;;;;;;36.25;22.50;;;2.60;99.90;;;;;;5052849;28;20039;-60
2022/01/27 05:54:38;;;;;;;38.25;21.08;;;2.60;99.90;;;;;;5042470;28;20064;-52
2022/01/27 05:57:04;;;;;;;32.45;18.65;;;2.50;99.90;;;;;;5035939;28;20053;-53
2022/01/27 05:59:30;;;;;;;37.08;20.15;;;2.50;99.90;;;;;;5036460;28;20132;-55
2022/01/27 06:01:55;;;;;;;29.83;18.30;;;2.40;99.90;;;;;;5044849;28;20103;-54
2022/01/27 06:04:21;;;;;;;33.85;20.00;;;2.40;99.90;;;;;;5032703;28;20068;-55
2022/01/27 06:06:46;;;;;;;33.08;20.80;;;2.40;99.90;;;;;;5046624;28;20106;-55
2022/01/27 06:09:12;;;;;;;34.97;19.15;;;2.40;99.90;;;;;;5052306;28;20033;-58
2022/01/27 06:11:37;;;;;;;32.20;19.05;;;2.40;99.90;;;;;;5034694;28;20120;-56
2022/01/27 06:14:03;;;;;;;34.35;18.38;;;2.30;99.90;;;;;;5052840;28;20057;-54
2022/01/27 06:16:29;;;;;;;26.70;16.63;;;2.40;99.90;;;;;;5050272;28;20048;-53
2022/01/27 06:18:55;;;;;;;31.33;17.45;;;2.40;99.90;;;;;;5052062;28;20056;-52
2022/01/27 06:21:20;;;;;;;27.38;16.48;;;2.40;99.90;;;;;;5052019;28;20039;-54
2022/01/27 06:23:46;;;;;;;27.98;17.63;;;2.40;99.90;;;;;;5054920;28;20037;-53
2022/01/27 06:26:12;;;;;;;30.42;17.10;;;2.40;99.90;;;;;;5051989;28;20029;-55
2022/01/27 06:28:37;;;;;;;28.98;17.95;;;2.40;99.90;;;;;;5052265;28;20024;-56
2022/01/27 06:31:03;;;;;;;28.00;16.50;;;2.40;99.90;;;;;;5052090;28;20040;-56
2022/01/27 06:33:29;;;;;;;30.08;17.73;;;2.40;99.90;;;;;;5052171;28;20519;-55
2022/01/27 06:35:54;;;;;;;30.33;16.27;;;2.40;99.90;;;;;;5051691;28;20037;-55
2022/01/27 06:38:20;;;;;;;29.30;15.55;;;2.40;99.90;;;;;;5050120;28;20041;-56
2022/01/27 06:40:46;;;;;;;28.85;16.55;;;2.30;99.90;;;;;;5043826;28;20041;-55
2022/01/27 06:43:15;;;;;;;24.52;16.33;;;2.30;99.90;;;;;;5051751;28;20064;-55
2022/01/27 06:45:41;;;;;;;28.55;17.70;;;2.40;99.90;;;;;;5052015;28;20090;-57
2022/01/27 06:48:06;;;;;;;29.15;16.85;;;2.30;99.90;;;;;;5052390;28;20539;-56
2022/01/27 06:50:32;;;;;;;32.20;17.58;;;2.30;99.90;;;;;;5049847;28;20037;-53
2022/01/27 06:52:59;;;;;;;28.20;17.45;;;2.40;99.90;;;;;;5046484;28;20648;-53
2022/01/27 06:55:25;;;;;;;28.00;17.13;;;2.40;99.90;;;;;;5051528;28;20033;-52
2022/01/27 06:57:50;;;;;;;34.15;17.55;;;2.40;99.90;;;;;;5050506;28;20435;-54
2022/01/27 07:00:17;;;;;;;26.10;17.30;;;2.40;99.90;;;;;;5052033;28;20451;-57
2022/01/27 07:02:43;;;;;;;28.27;17.42;;;2.40;99.90;;;;;;5050578;28;20083;-53
2022/01/27 07:05:15;;;;;;;31.83;18.05;;;2.40;99.90;;;;;;5051678;28;20037;-56
2022/01/27 07:07:42;;;;;;;31.73;17.75;;;2.40;99.90;;;;;;5050364;28;20550;-54
2022/01/27 07:10:08;;;;;;;27.77;16.63;;;2.50;99.90;;;;;;5051795;28;20035;-54
2022/01/27 07:12:33;;;;;;;31.67;18.13;;;2.50;99.90;;;;;;5051369;28;20029;-55
2022/01/27 07:14:59;;;;;;;31.20;17.70;;;2.50;99.90;;;;;;5051828;28;20559;-56
2022/01/27 07:17:25;;;;;;;27.70;17.63;;;2.40;99.90;;;;;;5056807;28;20201;-53
2022/01/27 07:19:50;;;;;;;30.23;17.88;;;2.40;99.90;;;;;;5065378;28;20060;-57
2022/01/27 07:22:16;;;;;;;30.38;18.00;;;2.50;99.90;;;;;;5054233;28;20037;-58
2022/01/27 07:24:41;;;;;;;30.90;17.63;;;2.50;99.90;;;;;;5051490;28;20057;-54
2022/01/27 07:27:08;;;;;;;30.67;18.98;;;2.50;99.90;;;;;;5051555;28;20037;-56
2022/01/27 07:29:34;;;;;;;29.98;18.48;;;2.50;99.90;;;;;;5052171;28;20025;-56
2022/01/27 07:31:59;;;;;;;29.30;17.02;;;2.50;99.90;;;;;;5051915;28;20520;-58
2022/01/27 07:34:25;;;;;;;31.92;18.08;;;2.50;99.90;;;;;;5051262;28;20091;-55
2022/01/27 07:36:55;;;;;;;33.50;19.58;;;2.50;99.90;;;;;;5051427;28;20127;-54
2022/01/27 07:39:21;;;;;;;31.92;19.10;;;2.50;99.90;;;;;;5051420;28;20040;-54
2022/01/27 07:41:47;;;;;;;35.47;19.33;;;2.50;99.90;;;;;;5050747;28;20059;-54
2022/01/27 07:44:13;;;;;;;35.80;18.70;;;2.40;99.90;;;;;;5053765;28;20061;-54
2022/01/27 07:46:38;;;;;;;39.75;18.73;;;2.50;99.90;;;;;;5053015;28;20048;-50
2022/01/27 07:49:04;;;;;;;35.58;19.48;;;2.50;99.90;;;;;;5053171;28;20441;-53
2022/01/27 07:51:30;;;;;;;34.83;19.70;;;2.50;99.90;;;;;;5054051;28;20485;-55
2022/01/27 07:53:56;;;;;;;36.08;19.48;;;2.40;99.90;;;;;;5054038;28;20036;-52
2022/01/27 07:56:21;;;;;;;36.63;22.45;;;2.50;99.90;;;;;;5054079;28;20033;-53
2022/01/27 07:58:47;;;;;;;37.83;21.58;;;2.50;99.90;;;;;;5053433;28;20520;-55
2022/01/27 08:01:13;;;;;;;38.40;21.40;;;2.40;99.90;;;;;;5053302;28;20142;-53
2022/01/27 08:03:39;;;;;;;41.30;21.58;;;2.50;99.90;;;;;;5052770;28;20033;-58
2022/01/27 08:06:07;;;;;;;35.63;21.10;;;2.50;99.90;;;;;;5053725;28;20365;-53
2022/01/27 08:08:34;;;;;;;35.40;19.00;;;2.50;99.90;;;;;;5053308;28;20033;-54
2022/01/27 08:11:00;;;;;;;35.70;20.50;;;2.60;99.90;;;;;;5053942;28;20106;-56
2022/01/27 08:13:26;;;;;;;38.95;22.02;;;2.70;99.90;;;;;;5053714;28;20462;-56
2022/01/27 08:15:52;;;;;;;36.75;21.50;;;2.60;99.90;;;;;;5054727;28;20037;-57
2022/01/27 08:18:18;;;;;;;35.80;20.95;;;2.60;99.90;;;;;;5054568;28;20117;-55
2022/01/27 08:20:46;;;;;;;35.63;20.17;;;2.60;99.90;;;;;;5054844;28;20071;-55
2022/01/27 08:23:14;;;;;;;38.95;22.10;;;2.60;99.90;;;;;;5057109;28;20040;-55
2022/01/27 08:25:40;;;;;;;39.75;21.13;;;2.60;99.90;;;;;;5052842;28;20408;-57
2022/01/27 08:28:19;;;;;;;38.88;21.30;;;2.60;99.90;;;;;;5053714;28;20071;-56
2022/01/27 08:30:48;;;;;;;34.00;18.70;;;2.60;99.90;;;;;;5054255;28;20075;-54
2022/01/27 08:33:16;;;;;;;39.67;21.30;;;2.60;99.90;;;;;;5053716;28;20037;-55
2022/01/27 08:35:42;;;;;;;36.95;19.90;;;2.50;99.90;;;;;;5053526;28;20041;-57
2022/01/27 08:38:08;;;;;;;36.83;20.42;;;2.60;99.90;;;;;;5053265;28;20448;-56
2022/01/27 08:40:34;;;;;;;39.63;20.58;;;2.60;99.90;;;;;;5053902;28;20061;-57
2022/01/27 08:43:03;;;;;;;35.17;20.65;;;2.60;99.90;;;;;;5053431;28;20033;-54
2022/01/27 08:45:29;;;;;;;35.92;20.85;;;2.50;99.90;;;;;;5053232;28;20029;-53
2022/01/27 08:47:57;;;;;;;43.78;22.00;;;2.50;99.90;;;;;;5053138;28;20413;-52
2022/01/27 08:50:24;;;;;;;37.25;20.73;;;2.50;99.90;;;;;;5052312;28;20036;-52
2022/01/27 08:52:50;;;;;;;40.50;21.48;;;2.60;99.90;;;;;;5053426;28;20036;-52
2022/01/27 08:55:20;;;;;;;43.95;21.58;;;2.60;99.90;;;;;;5053461;28;20396;-53
2022/01/27 08:57:46;;;;;;;41.85;21.88;;;2.50;99.90;;;;;;5053369;28;20106;-53
2022/01/27 09:00:15;;;;;;;44.33;21.33;;;2.50;99.90;;;;;;5051320;28;20068;-55
2022/01/27 09:02:40;;;;;;;40.58;21.73;;;2.50;99.90;;;;;;5050895;28;20115;-56
2022/01/27 09:05:06;;;;;;;41.95;20.65;;;2.50;99.90;;;;;;5052642;28;20112;-57
2022/01/27 09:07:34;;;;;;;45.22;22.75;;;2.50;99.90;;;;;;5053843;28;20084;-56
2022/01/27 09:10:03;;;;;;;44.42;21.27;;;2.50;99.90;;;;;;5054304;28;20021;-55
2022/01/27 09:12:29;;;;;;;41.92;20.00;;;2.50;99.90;;;;;;5053086;28;20056;-55
2022/01/27 09:14:54;;;;;;;43.80;21.63;;;2.50;99.90;;;;;;5054488;28;20762;-57
2022/01/27 09:17:25;;;;;;;41.30;21.85;;;2.50;99.90;;;;;;5059229;28;20074;-59
2022/01/27 09:19:50;;;;;;;39.55;22.05;;;2.60;99.90;;;;;;5074766;28;20032;-56
2022/01/27 09:22:18;;;;;;;44.58;20.83;;;2.60;99.90;;;;;;5069357;28;20041;-59
2022/01/27 09:25:05;;;;;;;43.08;22.50;;;2.60;99.90;;;;;;5053660;28;20052;-57
2022/01/27 09:27:31;;;;;;;41.20;19.88;;;2.60;99.90;;;;;;5053308;28;20045;-57
2022/01/27 09:29:56;;;;;;;42.53;20.08;;;2.60;99.90;;;;;;5052113;28;20055;-56
2022/01/27 09:32:25;;;;;;;42.80;21.85;;;2.60;99.90;;;;;;5053270;28;20477;-58
2022/01/27 09:34:51;;;;;;;33.60;20.25;;;2.60;99.90;;;;;;5052454;28;20120;-57
2022/01/27 09:37:17;;;;;;;38.10;20.80;;;2.60;99.90;;;;;;5052353;28;20064;-57
2022/01/27 09:39:44;;;;;;;39.25;21.08;;;2.60;99.90;;;;;;5053556;28;20076;-57
2022/01/27 09:42:10;;;;;;;43.13;22.88;;;2.60;99.90;;;;;;5053303;28;20025;-57
2022/01/27 09:44:37;;;;;;;39.90;20.92;;;2.60;99.90;;;;;;5048937;28;20033;-55
2022/01/27 09:47:14;;;;;;;35.30;19.20;;;2.60;99.90;;;;;;5051140;28;20024;-55
2022/01/27 09:49:50;;;;;;;39.70;20.00;;;2.70;99.90;;;;;;5052204;28;20044;-54
2022/01/27 09:52:16;;;;;;;38.20;20.10;;;2.70;99.90;;;;;;5049859;28;20033;-57
2022/01/27 09:54:45;;;;;;;45.03;22.83;;;2.70;99.90;;;;;;5052312;28;20541;-59
2022/01/27 09:57:10;;;;;;;41.17;20.63;;;2.70;99.90;;;;;;5052700;28;20036;-56
2022/01/27 09:59:36;;;;;;;43.83;21.50;;;2.70;99.90;;;;;;5052687;28;20032;-56
2022/01/27 10:02:05;;;;;;;40.80;20.60;;;2.80;99.90;;;;;;5051802;28;20139;-57
2022/01/27 10:04:47;;;;;;;42.20;20.65;;;2.80;99.90;;;;;;5052102;28;20144;-52
2022/01/27 10:07:18;;;;;;;40.38;20.48;;;2.80;99.90;;;;;;5051078;28;20111;-59
2022/01/27 10:10:09;;;;;;;37.30;18.73;;;2.80;99.90;;;;;;5050633;28;20601;-56
2022/01/27 10:12:41;;;;;;;39.28;19.65;;;2.90;99.90;;;;;;5051099;28;20029;-55
2022/01/27 10:15:11;;;;;;;38.25;19.17;;;2.90;99.90;;;;;;5051273;28;20063;-56
2022/01/27 10:17:39;;;;;;;39.80;21.08;;;2.90;99.90;;;;;;5047055;28;20030;-57
2022/01/27 10:20:19;;;;;;;39.42;20.38;;;2.90;99.90;;;;;;5052523;28;20492;-56
2022/01/27 10:23:10;;;;;;;38.60;20.35;;;2.90;99.90;;;;;;5051583;28;20059;-58
2022/01/27 10:25:46;;;;;;;39.08;20.40;;;3.00;99.90;;;;;;5052134;28;20052;-57
2022/01/27 10:31:19;;;;;;;39.05;20.92;;;3.00;99.90;;;;;;5052120;28;20033;-61
2022/01/27 10:34:02;;;;;;;37.58;19.13;;;3.00;99.90;;;;;;5051722;28;20048;-57
2022/01/27 10:36:29;;;;;;;36.45;19.10;;;3.00;99.90;;;;;;5052186;28;20469;-55
2022/01/27 10:39:00;;;;;;;39.95;20.52;;;3.10;99.90;;;;;;5051876;28;20061;-58
2022/01/27 10:41:32;;;;;;;37.20;19.05;;;3.10;99.90;;;;;;5052193;28;20033;-59
2022/01/27 10:44:31;;;;;;;39.78;19.20;;;3.10;99.90;;;;;;5052014;28;20124;-58
2022/01/27 10:47:21;;;;;;;34.85;19.92;;;3.20;99.90;;;;;;5051777;28;20492;-60
2022/01/27 10:50:07;;;;;;;42.13;19.23;;;3.20;99.90;;;;;;5051114;28;20029;-55
2022/01/27 10:55:11;;;;;;;34.85;19.90;;;3.30;99.90;;;;;;5051961;28;20029;-60
2022/01/27 10:57:36;;;;;;;;;;;3.30;99.90;;;;;;5052397;28;20032;-60
2022/01/27 11:00:10;;;;;;;40.05;19.38;;;3.30;99.90;;;;;;5051954;28;19905;-58
2022/01/27 11:02:58;;;;;;;40.13;21.05;;;3.30;99.90;;;;;;5051777;28;20039;-55
2022/01/27 11:05:33;;;;;;;37.10;20.50;;;3.30;99.90;;;;;;5050499;28;20086;-58
2022/01/27 11:08:00;;;;;;;38.95;19.70;;;3.40;99.90;;;;;;5050625;28;20041;-56
2022/01/27 11:10:26;;;;;;;34.90;19.00;;;3.40;99.90;;;;;;5052067;28;20028;-55
2022/01/27 11:12:53;;;;;;;39.60;20.02;;;3.50;99.90;;;;;;5051895;28;20397;-57
2022/01/27 11:15:20;;;;;;;33.55;19.58;;;3.50;99.90;;;;;;5051822;28;20033;-59
2022/01/27 11:17:47;;;;;;;34.85;20.40;;;3.50;99.90;;;;;;5053383;28;20040;-59
2022/01/27 11:22:57;;;;;;;35.83;19.98;;;3.60;99.90;;;;;;5062601;28;20044;-60
2022/01/27 11:27:59;;;;;;;37.88;19.83;;;3.80;99.90;;;;;;5075562;28;20082;-56
2022/01/27 11:30:42;;;;;;;35.10;19.20;;;3.80;99.90;;;;;;5074711;28;20024;-56
2022/01/27 11:33:13;;;;;;;36.55;19.65;;;3.80;99.90;;;;;;5075551;28;20111;-58
2022/01/27 11:35:40;;;;;;;37.00;19.63;;;3.80;99.90;;;;;;5075825;28;20043;-55
2022/01/27 11:38:08;;;;;;;33.90;20.05;;;3.90;99.90;;;;;;5075411;28;20048;-59
2022/01/27 11:40:39;;;;;;;38.15;19.17;;;3.80;99.90;;;;;;5075018;28;20035;-60
2022/01/27 11:43:08;;;;;;;37.75;19.27;;;3.90;99.90;;;;;;5074933;28;20035;-58
2022/01/27 11:45:54;;;;;;;36.50;19.52;;;3.90;99.90;;;;;;5075478;28;20455;-55
2022/01/27 11:48:26;;;;;;;35.50;19.52;;;3.90;99.90;;;;;;5073678;28;20032;-57
2022/01/27 11:51:10;;;;;;;33.42;19.15;;;4.00;99.90;;;;;;5075499;28;20024;-53
2022/01/27 11:53:48;;;;;;;38.33;20.90;;;4.00;99.90;;;;;;5074864;28;20032;-55
2022/01/27 11:56:23;;;;;;;36.33;19.10;;;4.00;99.90;;;;;;5074629;28;20024;-59
2022/01/27 11:58:49;;;;;;;40.40;20.08;;;4.10;99.90;;;;;;5075043;28;20032;-59
2022/01/27 12:01:21;;;;;;;36.55;18.63;;;4.10;99.90;;;;;;5074921;28;20036;-59
2022/01/27 12:04:05;;;;;;;33.20;18.38;;;4.10;99.90;;;;;;5074858;28;20037;-60
2022/01/27 12:06:47;;;;;;;38.50;19.90;;;4.20;99.90;;;;;;5063779;28;20071;-58
2022/01/27 12:09:18;;;;;;;39.33;19.33;;;4.20;99.90;;;;;;5053705;28;20071;-56
2022/01/27 12:11:48;;;;;;;36.22;20.00;;;4.20;99.90;;;;;;5054710;28;20112;-62
2022/01/27 12:14:17;;;;;;;35.45;19.95;;;4.20;99.90;;;;;;5054992;28;20063;-60
2022/01/27 12:16:54;;;;;;;34.30;18.80;;;4.30;99.90;;;;;;5054283;28;20124;-59
2022/01/27 12:19:20;;;;;;;34.92;19.40;;;4.30;99.90;;;;;;5054846;28;20086;-57
2022/01/27 12:21:53;;;;;;;35.20;19.77;;;4.30;99.90;;;;;;5053036;28;20492;-59
2022/01/27 12:24:25;;;;;;;35.00;20.48;;;4.30;99.90;;;;;;5034335;28;20493;-60
2022/01/27 12:27:01;;;;;;;37.28;18.88;;;4.30;99.90;;;;;;5034563;28;20030;-60
2022/01/27 12:29:30;;;;;;;37.15;19.95;;;4.30;99.90;;;;;;5033901;28;20064;-60
2022/01/27 12:32:23;;;;;;;33.35;19.02;;;4.30;99.90;;;;;;5034818;28;20029;-61
2022/01/27 12:34:57;;;;;;;35.72;19.40;;;4.40;99.90;;;;;;5035015;28;20029;-60
2022/01/27 12:37:24;;;;;;;31.60;19.17;;;4.40;99.90;;;;;;5034195;28;20550;-60
2022/01/27 12:39:58;;;;;;;33.47;19.38;;;4.30;99.90;;;;;;5033069;28;20056;-61
2022/01/27 12:42:30;;;;;;;35.83;20.30;;;4.40;99.90;;;;;;5034037;28;20409;-61
2022/01/27 12:44:58;;;;;;;35.88;19.90;;;4.50;99.90;;;;;;5034180;28;20033;-58
2022/01/27 12:47:25;;;;;;;32.65;18.38;;;4.40;99.90;;;;;;5034247;28;20121;-60
2022/01/27 12:50:02;;;;;;;34.30;18.23;;;4.40;99.90;;;;;;5034174;28;20044;-57
2022/01/27 12:52:31;;;;;;;33.20;20.00;;;4.50;99.90;;;;;;5033773;28;20079;-64
2022/01/27 12:54:57;;;;;;;33.03;18.50;;;4.40;99.90;;;;;;5034233;28;20045;-60
2022/01/27 12:57:25;;;;;;;38.30;19.10;;;4.40;99.90;;;;;;5033619;28;20504;-62
2022/01/27 12:59:53;;;;;;;32.45;19.15;;;4.30;99.90;;;;;;5033983;28;20060;-59
2022/01/27 13:02:20;;;;;;;30.58;16.45;;;4.40;99.90;;;;;;5033438;28;20029;-61
2022/01/27 13:04:47;;;;;;;34.97;20.27;;;4.40;99.90;;;;;;5033895;28;20061;-62
2022/01/27 13:07:13;;;;;;;31.63;17.80;;;4.30;99.90;;;;;;5046158;28;20039;-60
2022/01/27 13:09:39;;;;;;;33.53;18.45;;;4.40;99.90;;;;;;5033796;28;20033;-57
2022/01/27 13:12:15;;;;;;;30.50;17.27;;;4.40;99.90;;;;;;5034356;28;20017;-59
2022/01/27 13:15:06;;;;;;;31.65;18.75;;;4.40;99.90;;;;;;5034017;28;20037;-61
2022/01/27 13:23:06;;;;;;;38.38;19.70;;;4.50;99.90;;;;;;5050702;28;20075;-59
2022/01/27 13:25:45;;;;;;;33.33;18.75;;;4.50;99.90;;;;;;5074193;28;20033;-59
2022/01/27 13:28:11;;;;;;;34.22;18.20;;;4.60;99.90;;;;;;5073946;28;20027;-59
2022/01/27 13:30:38;;;;;;;32.00;18.33;;;4.60;99.90;;;;;;5074057;28;20025;-55
2022/01/27 13:33:12;;;;;;;34.65;18.90;;;4.60;99.90;;;;;;5073765;28;20480;-59
2022/01/27 13:35:38;;;;;;;31.02;17.52;;;4.60;99.90;;;;;;5073970;28;20052;-59
2022/01/27 13:38:28;;;;;;;31.00;18.27;;;4.70;99.90;;;;;;5073311;28;20028;-59